Tropical Cyclones
[Index]
Main Index Home Page Stock Weather Photos Extreme Storms Discussion Storm News and Storm Chasing Reports Tropical Cyclones / Hurricanes / Typhoons Weather Data and Links Wild Fires / Bushfires Weather Observation Techniques Weather Picture Catalogue Tornado Pictures and Reports Stock Video Footage and DVDs for sale
Season 2009-2010 Tropical Cyclone ROBYN Track Map
Season 2009-2010 Summaries (Operational Data): [AU] [SIO] [SPAC] [SH]
<<- Previous TC | 2009-2010 Season | Next TC ->>

click for intensity scale information  Lat/long Grid: Show Hide

 Date Labels: Show Hide

Operational Tropical Cyclone Data : JTWC Advisories | BoM Warnings

Name: ROBYN
Number: 1023

02 Apr 2010 06:00 UTC to 11 Apr 2010 18:00 UTC

    date/time    lat    long     hPa   cat  kts
2010-04-02 06   11.0    92.3    1000         30          
2010-04-02 12   11.6    92.3    1000         30          
2010-04-02 18   12.2    92.3    1000         30          
2010-04-03 00   12.9    92.2     995    1    40          
2010-04-03 06   13.4    92.1     995    1    40          
2010-04-03 12   13.8    92.0     990    1    45          
2010-04-03 18   14.2    91.9     990    1    45          
2010-04-04 00   14.2    92.4     990    1    45          
2010-04-04 06   14.5    92.3     986    2    50          
2010-04-04 12   14.8    91.8     980    2    60          
2010-04-04 18   15.2    91.6     980    2    60          
2010-04-05 00   15.6    91.4     976    3    65          
2010-04-05 06   16.0    91.6     976    3    65          
2010-04-05 12   16.2    91.8     976    3    65          
2010-04-05 18   16.1    92.2     985    2    50          
2010-04-06 00   16.0    92.1     992    1    40          
2010-04-06 06   15.5    91.8     995    1    35          
2010-04-06 18   15.2    90.8     995    1    35          
2010-04-07 00   15.6    90.6     995    1    35          
2010-04-07 06   16.0    90.2    1000         33          
2010-04-07 12   16.2    89.6    1002         25          
2010-04-07 18   16.5    89.0    1000        NRL          
2010-04-08 00   16.0    87.6    1000         26          
2010-04-08 06   16.1    87.1    1000         26          
2010-04-08 12   16.4    85.8    1000         26          
2010-04-08 18   16.5    84.9    1000         26          
2010-04-09 00   16.4    83.3    1000         26          
2010-04-09 06   15.9    81.7    1000         26          
2010-04-09 12   15.6    80.7    1004         22          
2010-04-09 18   16.2    80.0    1004         22          
2010-04-10 00   17.1    79.3    1004         22          
2010-04-10 06   18.7    79.2    1004         22          
2010-04-10 12   16.6    79.5    1004         22          
2010-04-10 18   17.0    78.9    1004         22          
2010-04-11 00   17.6    78.1    1004         22          
2010-04-11 06   18.3    77.4    1004         22          
2010-04-11 12   19.4    76.2    1004         22          
2010-04-11 18   19.3    75.3    1004         22          
Winds are 10-min average.

Tropical cyclone tracks developed by Michael Bath using operational warnings and advisories and Google Maps.


[Australian Severe Weather index] [Copyright Notice] [Email Contacts] [Search This Site] [Privacy Policy]
Document: tropical_cyclone_robyn.htm Updated: 28 May 2013